createdAt,value
2022-10-04T00:01:22.667Z,87.98
2022-10-04T00:03:52.867Z,88.25
2022-10-04T00:06:23.212Z,88.18
2022-10-04T00:08:58.471Z,88.09
2022-10-04T00:11:27.003Z,88.32
2022-10-04T00:13:57.387Z,88.17
2022-10-04T00:16:34.735Z,87.93
2022-10-04T00:19:19.587Z,88.32
2022-10-04T00:21:56.286Z,87.70
2022-10-04T00:24:28.969Z,87.42
2022-10-04T00:27:10.798Z,87.55
2022-10-04T00:29:42.177Z,87.57
2022-10-04T00:32:11.479Z,87.54
2022-10-04T00:34:49.527Z,87.47
2022-10-04T00:37:22.014Z,87.08
2022-10-04T00:40:26.839Z,87.68
2022-10-04T00:43:00.247Z,87.52
2022-10-04T00:45:37.690Z,87.39
2022-10-04T00:49:02.690Z,87.69
2022-10-04T00:51:50.570Z,87.45
2022-10-04T00:54:32.615Z,87.22
2022-10-04T00:57:07.571Z,87.72
2022-10-04T00:59:50.396Z,87.17
2022-10-04T01:02:23.121Z,87.24
2022-10-04T01:05:13.069Z,86.88
2022-10-04T01:08:13.704Z,86.72
2022-10-04T01:11:01.465Z,86.53
2022-10-04T01:13:35.060Z,86.17
2022-10-04T01:16:14.130Z,85.78
2022-10-04T01:18:41.268Z,85.85
2022-10-04T01:21:16.910Z,85.51
2022-10-04T01:23:47.728Z,85.48
2022-10-04T01:26:26.499Z,85.23
2022-10-04T01:28:54.169Z,85.62
2022-10-04T01:31:21.372Z,85.12
2022-10-04T01:33:48.582Z,84.59
2022-10-04T01:36:15.346Z,84.67
2022-10-04T01:38:41.841Z,84.52
2022-10-04T01:41:11.975Z,84.52
2022-10-04T01:43:42.795Z,84.41
2022-10-04T01:46:33.374Z,84.77
2022-10-04T01:49:04.700Z,84.84
2022-10-04T01:51:36.104Z,84.72
2022-10-04T01:54:11.537Z,84.99
2022-10-04T01:56:43.845Z,85.33
2022-10-04T01:59:19.362Z,85.57
2022-10-04T02:01:55.771Z,85.17
2022-10-04T02:04:28.483Z,85.28
2022-10-04T02:06:57.123Z,85.76
2022-10-04T02:09:27.067Z,85.92
2022-10-04T02:11:54.746Z,86.12
2022-10-04T02:14:28.328Z,86.65
2022-10-04T02:16:55.269Z,86.71
2022-10-04T02:19:31.192Z,87.38
2022-10-04T02:21:58.628Z,87.21
2022-10-04T02:24:25.408Z,87.16
2022-10-04T02:26:52.824Z,87.37
2022-10-04T02:29:22.496Z,87.29
2022-10-04T02:32:10.316Z,87.15
2022-10-04T02:34:38.037Z,87.55
2022-10-04T02:37:05.732Z,88.00
2022-10-04T02:39:38.916Z,87.86
2022-10-04T02:42:19.176Z,87.81
2022-10-04T02:45:30.687Z,87.53
2022-10-04T02:48:02.306Z,87.54
2022-10-04T02:50:40.145Z,87.82
2022-10-04T02:53:22.500Z,87.53
2022-10-04T02:55:49.068Z,87.65
2022-10-04T02:58:19.416Z,87.48
2022-10-04T03:00:49.127Z,87.01
2022-10-04T03:03:27.560Z,87.69
2022-10-04T03:06:12.514Z,88.10
2022-10-04T03:08:49.178Z,88.34
2022-10-04T03:11:18.111Z,88.34
2022-10-04T03:13:51.287Z,88.38
2022-10-04T03:16:19.443Z,88.44
2022-10-04T03:18:48.219Z,88.73
2022-10-04T03:21:17.662Z,88.82
2022-10-04T03:23:46.748Z,89.02
2022-10-04T03:26:19.185Z,89.41
2022-10-04T03:28:46.243Z,89.95
2022-10-04T03:31:14.842Z,90.04
2022-10-04T03:33:43.311Z,90.08
2022-10-04T03:36:15.738Z,90.40
2022-10-04T03:38:44.711Z,91.13
2022-10-04T03:41:12.613Z,91.13
2022-10-04T03:43:44.993Z,90.70
2022-10-04T03:46:12.829Z,90.99
2022-10-04T03:48:54.366Z,90.87
2022-10-04T03:51:24.867Z,91.49
2022-10-04T03:54:02.435Z,91.74
2022-10-04T03:56:33.573Z,91.87
2022-10-04T03:59:04.068Z,91.90
2022-10-04T04:01:46.678Z,91.86
2022-10-04T04:04:18.840Z,91.92
2022-10-04T04:07:00.002Z,92.29
2022-10-04T04:09:41.271Z,92.16
2022-10-04T04:12:15.092Z,92.79
2022-10-04T04:14:42.596Z,92.87
2022-10-04T04:17:33.242Z,92.57
2022-10-04T04:20:07.223Z,93.04
2022-10-04T04:22:36.179Z,92.83
2022-10-04T04:25:10.446Z,93.08
2022-10-04T04:27:40.589Z,93.25
2022-10-04T04:30:08.702Z,93.16
2022-10-04T04:32:42.296Z,93.06
2022-10-04T04:35:23.391Z,93.19
2022-10-04T04:38:05.436Z,93.17
2022-10-04T04:40:32.644Z,93.42
2022-10-04T04:43:02.525Z,92.97
2022-10-04T04:45:32.137Z,92.54
2022-10-04T04:48:01.279Z,92.12
2022-10-04T04:50:37.477Z,91.47
2022-10-04T04:53:18.104Z,91.04
2022-10-04T04:56:05.140Z,90.84
2022-10-04T04:58:45.915Z,90.16
2022-10-04T05:01:23.443Z,89.99
2022-10-04T05:04:08.766Z,89.10
2022-10-04T05:06:37.775Z,88.63
2022-10-04T05:09:06.134Z,88.12
2022-10-04T05:11:38.886Z,88.16
2022-10-04T05:14:07.904Z,87.95
2022-10-04T05:16:45.150Z,88.59
2022-10-04T05:19:30.554Z,89.00
2022-10-04T05:22:00.615Z,88.88
2022-10-04T05:24:40.146Z,89.06
2022-10-04T05:27:25.302Z,89.49
2022-10-04T05:30:13.019Z,90.14
2022-10-04T05:33:03.205Z,89.72
2022-10-04T05:35:43.087Z,89.92
2022-10-04T05:38:34.367Z,90.07
2022-10-04T05:41:14.673Z,90.06
2022-10-04T05:43:50.346Z,90.26
2022-10-04T05:46:31.175Z,90.13
2022-10-04T05:49:18.862Z,90.22
2022-10-04T05:52:02.443Z,89.99
2022-10-04T05:54:33.271Z,90.32
2022-10-04T05:57:35.839Z,90.29
2022-10-04T06:00:14.854Z,89.93
2022-10-04T06:03:09.436Z,89.89
2022-10-04T06:05:50.359Z,89.47
2022-10-04T06:08:26.591Z,89.07
2022-10-04T06:11:02.372Z,88.79
2022-10-04T06:13:52.576Z,88.58
2022-10-04T06:16:45.014Z,88.92
2022-10-04T06:19:11.515Z,88.66
2022-10-04T06:21:55.715Z,88.32
2022-10-04T06:24:27.382Z,87.84
2022-10-04T06:27:05.476Z,87.96
2022-10-04T06:29:42.810Z,88.04
2022-10-04T06:32:21.552Z,87.70
2022-10-04T06:35:09.996Z,87.25
2022-10-04T06:37:58.356Z,86.81
2022-10-04T06:41:02.408Z,85.94
2022-10-04T06:43:39.941Z,84.27
2022-10-04T06:46:19.872Z,84.02
2022-10-04T06:48:56.846Z,82.93
2022-10-04T06:51:42.256Z,82.83
2022-10-04T06:54:27.539Z,81.24
2022-10-04T06:57:15.818Z,80.82
2022-10-04T07:00:03.433Z,79.57
2022-10-04T07:02:46.241Z,77.71
2022-10-04T07:05:30.434Z,78.50
2022-10-04T07:08:06.795Z,76.77
2022-10-04T07:10:40.844Z,76.28
2022-10-04T07:13:42.953Z,76.54
2022-10-04T07:16:32.177Z,77.37
2022-10-04T07:19:08.439Z,76.29
2022-10-04T07:21:46.952Z,75.66
2022-10-04T07:24:23.071Z,76.29
2022-10-04T07:26:52.716Z,75.99
2022-10-04T07:29:24.613Z,76.29
2022-10-04T07:32:13.438Z,76.63
2022-10-04T07:34:52.158Z,76.98
2022-10-04T07:37:20.948Z,77.12
2022-10-04T07:40:04.882Z,77.29
2022-10-04T07:42:36.690Z,77.91
2022-10-04T07:45:21.377Z,77.78
2022-10-04T07:47:48.193Z,78.08
2022-10-04T07:50:39.596Z,77.15
2022-10-04T07:53:22.147Z,77.54
2022-10-04T07:55:51.781Z,78.12
2022-10-04T07:58:21.116Z,77.92
2022-10-04T08:00:49.489Z,78.12
2022-10-04T08:03:21.904Z,76.92
2022-10-04T08:05:59.045Z,77.33
2022-10-04T08:08:28.164Z,76.57
2022-10-04T08:11:00.772Z,77.09
2022-10-04T08:13:49.365Z,77.29
2022-10-04T08:16:15.748Z,77.25
2022-10-04T08:19:16.185Z,77.24
2022-10-04T08:22:01.717Z,77.44
2022-10-04T08:24:54.221Z,77.42
2022-10-04T08:27:20.599Z,77.47
2022-10-04T08:30:11.142Z,78.06
2022-10-04T08:32:41.564Z,78.01
2022-10-04T08:35:36.446Z,77.97
2022-10-04T08:38:24.128Z,78.13
2022-10-04T08:41:28.626Z,76.36
2022-10-04T08:44:16.931Z,75.90
2022-10-04T08:47:22.235Z,74.95
2022-10-04T08:49:54.868Z,74.86
2022-10-04T08:52:50.206Z,73.93
2022-10-04T08:55:37.442Z,73.77
2022-10-04T08:58:16.679Z,73.27
2022-10-04T09:01:02.113Z,73.51
2022-10-04T09:03:47.163Z,72.89
2022-10-04T09:06:36.415Z,72.58
2022-10-04T09:09:50.977Z,72.22
2022-10-04T09:12:35.751Z,71.48
2022-10-04T09:15:22.092Z,70.87
2022-10-04T09:18:12.960Z,71.47
2022-10-04T09:20:42.371Z,70.52
2022-10-04T09:23:30.793Z,70.29
2022-10-04T09:26:19.249Z,70.87
2022-10-04T09:29:02.439Z,70.47
2022-10-04T09:31:54.742Z,69.33
2022-10-04T09:34:35.089Z,69.69
2022-10-04T09:37:06.590Z,69.84
2022-10-04T09:40:08.063Z,68.58
2022-10-04T09:43:08.724Z,67.82
2022-10-04T09:45:44.260Z,67.24
2022-10-04T09:48:43.804Z,68.10
2022-10-04T09:51:24.695Z,67.85
2022-10-04T09:54:11.667Z,69.69
2022-10-04T09:56:56.935Z,67.44
2022-10-04T09:59:29.515Z,67.15
2022-10-04T10:02:33.675Z,66.77
2022-10-04T10:05:27.521Z,68.83
2022-10-04T10:08:18.101Z,65.94
2022-10-04T10:11:41.437Z,65.59
2022-10-04T10:14:41.392Z,64.70
2022-10-04T10:17:22.905Z,64.11
2022-10-04T10:20:19.791Z,63.77
2022-10-04T10:23:14.290Z,64.56
2022-10-04T10:25:59.477Z,65.28
2022-10-04T10:28:55.300Z,63.92
2022-10-04T10:31:28.971Z,63.79
2022-10-04T10:34:01.692Z,62.96
2022-10-04T10:36:54.303Z,62.09
2022-10-04T10:39:58.045Z,60.77
2022-10-04T10:42:47.454Z,61.92
2022-10-04T10:45:55.224Z,64.08
2022-10-04T10:48:27.688Z,63.19
2022-10-04T10:51:31.738Z,64.04
2022-10-04T10:54:40.229Z,63.24
2022-10-04T10:58:01.456Z,64.89
2022-10-04T11:00:53.339Z,64.65
2022-10-04T11:03:57.740Z,64.87
2022-10-04T11:06:36.395Z,64.67
2022-10-04T11:09:28.235Z,64.84
2022-10-04T11:12:15.984Z,64.96
2022-10-04T11:15:04.987Z,65.36
2022-10-04T11:17:43.791Z,63.57
2022-10-04T11:20:28.842Z,64.15
2022-10-04T11:23:31.418Z,65.03
2022-10-04T11:26:24.187Z,65.95
2022-10-04T11:29:25.328Z,64.31
2022-10-04T11:31:54.877Z,63.94
2022-10-04T11:34:59.999Z,64.74
2022-10-04T11:37:51.031Z,64.81
2022-10-04T11:40:45.187Z,65.00
2022-10-04T11:43:46.542Z,65.06
2022-10-04T11:46:29.559Z,65.04
2022-10-04T11:49:04.686Z,65.96
2022-10-04T11:51:59.901Z,64.41
2022-10-04T11:54:59.079Z,65.52
2022-10-04T11:57:48.481Z,63.95
2022-10-04T12:00:23.871Z,66.95
2022-10-04T12:02:53.425Z,62.96
2022-10-04T12:05:46.732Z,61.88
2022-10-04T12:08:28.431Z,60.82
2022-10-04T12:11:26.555Z,61.40
2022-10-04T12:14:17.117Z,59.39
2022-10-04T12:17:11.120Z,61.46
2022-10-04T12:20:03.007Z,60.84
2022-10-04T12:22:45.580Z,61.86
2022-10-04T12:25:44.218Z,60.81
2022-10-04T12:28:13.947Z,58.95
2022-10-04T12:30:54.199Z,58.92
2022-10-04T12:33:36.910Z,61.66
2022-10-04T12:36:31.099Z,60.33
2022-10-04T12:39:06.331Z,58.05
2022-10-04T12:42:00.251Z,58.85
2022-10-04T12:44:43.055Z,58.94
2022-10-04T12:47:34.820Z,58.74
2022-10-04T12:50:40.795Z,59.64
2022-10-04T12:53:34.623Z,58.46
2022-10-04T12:56:50.527Z,59.54
2022-10-04T12:59:46.411Z,58.42
2022-10-04T13:02:36.108Z,57.56
2022-10-04T13:05:22.440Z,59.29
2022-10-04T13:08:04.002Z,58.34
2022-10-04T13:11:01.979Z,59.88
2022-10-04T13:13:56.432Z,57.34
2022-10-04T13:20:03.515Z,59.64
2022-10-04T13:22:56.494Z,59.14
2022-10-04T13:25:33.122Z,56.78
2022-10-04T13:28:13.559Z,57.60
2022-10-04T13:30:49.383Z,55.92
2022-10-04T13:33:24.643Z,56.89
2022-10-04T13:36:09.332Z,57.29
2022-10-04T13:39:09.513Z,57.43
2022-10-04T13:42:15.351Z,56.96
2022-10-04T13:44:57.060Z,57.07
2022-10-04T13:47:29.414Z,57.26
2022-10-04T13:50:29.023Z,57.24
2022-10-04T13:53:27.830Z,56.64
2022-10-04T13:56:21.798Z,56.32
2022-10-04T13:59:06.859Z,55.83
2022-10-04T14:01:46.314Z,55.66
2022-10-04T14:04:35.187Z,57.31
2022-10-04T14:07:52.393Z,56.49
2022-10-04T14:10:46.497Z,55.66
2022-10-04T14:13:50.651Z,54.32
2022-10-04T14:16:51.548Z,54.18
2022-10-04T14:19:42.547Z,55.89
2022-10-04T14:22:24.158Z,55.84
2022-10-04T14:25:21.136Z,56.09
2022-10-04T14:28:06.787Z,57.35
2022-10-04T14:30:45.523Z,58.10
2022-10-04T14:33:25.952Z,59.58
2022-10-04T14:36:10.005Z,59.79
2022-10-04T14:39:02.380Z,58.24
2022-10-04T14:41:59.927Z,60.82
2022-10-04T14:44:50.592Z,63.46
2022-10-04T14:47:39.322Z,62.80
2022-10-04T14:50:46.752Z,62.29
2022-10-04T14:53:38.407Z,61.63
2022-10-04T14:56:51.119Z,61.92
2022-10-04T14:59:47.308Z,63.42
2022-10-04T15:02:22.366Z,62.12
2022-10-04T15:04:48.850Z,62.17
2022-10-04T15:07:24.676Z,63.03
2022-10-04T15:10:16.283Z,61.69
2022-10-04T15:13:10.402Z,61.86
2022-10-04T15:15:59.883Z,63.82
2022-10-04T15:18:38.826Z,65.53
2022-10-04T15:21:23.542Z,66.35
2022-10-04T15:23:58.551Z,65.94
2022-10-04T15:26:31.007Z,66.72
2022-10-04T15:29:14.584Z,67.03
2022-10-04T15:31:56.054Z,67.79
2022-10-04T15:34:29.611Z,68.12
2022-10-04T15:37:09.892Z,68.79
2022-10-04T15:39:58.178Z,69.79
2022-10-04T15:42:29.415Z,69.23
2022-10-04T15:45:23.004Z,68.85
2022-10-04T15:48:10.527Z,68.82
2022-10-04T15:50:55.952Z,69.39
2022-10-04T15:53:39.980Z,70.37
2022-10-04T15:56:12.353Z,70.99
2022-10-04T15:58:56.032Z,71.94
2022-10-04T16:01:28.565Z,72.54
2022-10-04T16:04:20.567Z,73.03
2022-10-04T16:06:58.735Z,73.27
2022-10-04T16:10:00.347Z,73.65
2022-10-04T16:13:15.271Z,73.65
2022-10-04T16:15:52.653Z,74.29
2022-10-04T16:18:49.091Z,74.25
2022-10-04T16:21:29.297Z,74.74
2022-10-04T16:24:18.272Z,75.41
2022-10-04T16:26:44.969Z,76.04
2022-10-04T16:29:26.075Z,76.67
2022-10-04T16:31:57.767Z,77.09
2022-10-04T16:34:41.654Z,77.44
2022-10-04T16:37:40.259Z,77.73
2022-10-04T16:40:12.107Z,77.71
2022-10-04T16:42:44.646Z,78.19
2022-10-04T16:45:11.928Z,78.16
2022-10-04T16:47:56.746Z,78.92
2022-10-04T16:51:04.828Z,79.97
2022-10-04T16:53:53.264Z,80.11
2022-10-04T16:56:23.068Z,80.74
2022-10-04T16:59:04.996Z,80.88
2022-10-04T17:01:37.555Z,81.20
2022-10-04T17:04:04.534Z,81.44
2022-10-04T17:06:47.787Z,81.87
2022-10-04T17:09:30.451Z,81.87
2022-10-04T17:12:24.940Z,82.03
2022-10-04T17:15:09.143Z,82.26
2022-10-04T17:17:46.284Z,82.49
2022-10-04T17:20:31.583Z,82.69
2022-10-04T17:23:16.470Z,82.49
2022-10-04T17:26:21.419Z,82.54
2022-10-04T17:29:32.662Z,82.76
2022-10-04T17:32:24.754Z,82.63
2022-10-04T17:35:04.666Z,82.59
2022-10-04T17:37:53.208Z,82.63
2022-10-04T17:40:59.689Z,82.99
2022-10-04T17:44:04.464Z,83.88
2022-10-04T17:46:38.129Z,83.39
2022-10-04T17:49:33.787Z,83.83
2022-10-04T17:52:22.580Z,83.99
2022-10-04T17:55:18.675Z,84.54
2022-10-04T17:58:01.969Z,84.34
2022-10-04T18:00:48.734Z,85.24
2022-10-04T18:03:37.332Z,84.97
2022-10-04T18:06:13.965Z,85.29
2022-10-04T18:08:55.017Z,85.84
2022-10-04T18:11:27.556Z,86.44
2022-10-04T18:14:14.323Z,86.97
2022-10-04T18:16:49.361Z,87.07
2022-10-04T18:19:51.297Z,87.37
2022-10-04T18:22:26.400Z,87.58
2022-10-04T18:25:26.181Z,87.89
2022-10-04T18:28:08.249Z,86.90
2022-10-04T18:30:51.427Z,86.82
2022-10-04T18:33:44.342Z,87.37
2022-10-04T18:36:22.370Z,87.59
2022-10-04T18:39:14.390Z,88.12
2022-10-04T18:41:54.218Z,88.37
2022-10-04T18:44:23.793Z,88.25
2022-10-04T18:47:02.449Z,87.52
2022-10-04T18:49:46.395Z,87.88
2022-10-04T18:52:21.225Z,87.94
2022-10-04T18:54:59.682Z,87.92
2022-10-04T18:57:58.353Z,88.44
2022-10-04T19:00:51.646Z,88.72
2022-10-04T19:03:50.566Z,88.63
2022-10-04T19:06:36.244Z,88.60
2022-10-04T19:09:16.611Z,88.89
2022-10-04T19:12:00.078Z,88.92
2022-10-04T19:14:35.264Z,88.59
2022-10-04T19:17:28.192Z,89.09
2022-10-04T19:20:27.115Z,89.39
2022-10-04T19:23:07.207Z,88.32
2022-10-04T19:25:41.003Z,88.27
2022-10-04T19:28:26.633Z,88.40
2022-10-04T19:31:12.797Z,88.14
2022-10-04T19:33:48.330Z,88.12
2022-10-04T19:36:31.485Z,88.30
2022-10-04T19:39:12.374Z,88.32
2022-10-04T19:41:53.700Z,88.74
2022-10-04T19:44:23.317Z,89.19
2022-10-04T19:47:07.309Z,89.29
2022-10-04T19:49:58.158Z,89.24
2022-10-04T19:52:40.831Z,88.96
2022-10-04T19:55:40.371Z,89.44
2022-10-04T19:58:14.268Z,89.47
2022-10-04T20:00:40.785Z,88.98
2022-10-04T20:03:15.196Z,89.58
2022-10-04T20:05:50.681Z,89.66
2022-10-04T20:08:49.410Z,89.77
2022-10-04T20:11:18.374Z,90.64
2022-10-04T20:13:45.783Z,90.77
2022-10-04T20:16:12.641Z,90.49
2022-10-04T20:18:39.969Z,90.19
2022-10-04T20:21:10.144Z,89.38
2022-10-04T20:23:39.729Z,88.88
2022-10-04T20:26:08.570Z,89.31
2022-10-04T20:28:41.941Z,89.42
2022-10-04T20:31:25.385Z,89.49
2022-10-04T20:33:52.163Z,90.03
2022-10-04T20:36:21.894Z,90.19
2022-10-04T20:38:54.276Z,90.52
2022-10-04T20:41:48.955Z,90.61
2022-10-04T20:44:43.081Z,90.93
2022-10-04T20:47:37.611Z,91.04
2022-10-04T20:50:13.045Z,90.94
2022-10-04T20:52:45.278Z,91.08
2022-10-04T20:55:39.135Z,91.64
2022-10-04T20:58:35.489Z,91.73
2022-10-04T21:01:14.099Z,92.00
2022-10-04T21:03:40.667Z,92.17
2022-10-04T21:06:10.601Z,92.78
2022-10-04T21:08:39.219Z,92.26
2022-10-04T21:11:20.178Z,92.27
2022-10-04T21:13:58.199Z,92.36
2022-10-04T21:16:41.237Z,92.24
2022-10-04T21:19:29.768Z,91.84
2022-10-04T21:21:57.612Z,91.89
2022-10-04T21:24:37.277Z,91.72
2022-10-04T21:27:05.514Z,91.09
2022-10-04T21:29:32.362Z,91.59
2022-10-04T21:31:59.360Z,91.61
2022-10-04T21:34:51.462Z,91.59
2022-10-04T21:37:12.780Z,91.56
2022-10-04T21:39:39.384Z,91.42
2022-10-04T21:42:05.876Z,91.54
2022-10-04T21:44:32.440Z,91.85
2022-10-04T21:46:58.884Z,91.98
2022-10-04T21:49:25.409Z,91.99
2022-10-04T21:51:51.882Z,91.40
2022-10-04T21:54:18.397Z,91.66
2022-10-04T21:56:45.012Z,91.02
2022-10-04T21:59:11.709Z,90.59
2022-10-04T22:01:38.176Z,90.01
2022-10-04T22:04:04.652Z,90.27
2022-10-04T22:06:31.183Z,90.69
2022-10-04T22:08:57.672Z,90.57
2022-10-04T22:11:24.158Z,90.19
2022-10-04T22:13:51.237Z,90.45
2022-10-04T22:16:18.049Z,90.25
2022-10-04T22:18:44.537Z,90.46
2022-10-04T22:21:11.200Z,90.32
2022-10-04T22:23:40.673Z,90.54
2022-10-04T22:26:16.451Z,90.21
2022-10-04T22:28:51.312Z,90.22
2022-10-04T22:31:20.803Z,90.53
2022-10-04T22:33:50.043Z,90.93
2022-10-04T22:36:16.638Z,91.37
2022-10-04T22:38:49.023Z,91.32
2022-10-04T22:41:19.094Z,90.99
2022-10-04T22:43:47.322Z,90.97
2022-10-04T22:46:16.873Z,90.68
2022-10-04T22:48:48.702Z,90.72
2022-10-04T22:51:15.371Z,91.05
2022-10-04T22:53:47.176Z,90.36
2022-10-04T22:56:15.118Z,90.86
2022-10-04T22:58:42.698Z,90.99
2022-10-04T23:01:15.002Z,90.83
2022-10-04T23:03:45.515Z,91.25
2022-10-04T23:06:14.313Z,91.41
2022-10-04T23:08:44.465Z,91.30
2022-10-04T23:11:11.274Z,91.20
2022-10-04T23:13:38.578Z,91.37
2022-10-04T23:16:16.273Z,91.25
2022-10-04T23:18:42.848Z,91.54
2022-10-04T23:21:21.978Z,91.47
2022-10-04T23:23:49.000Z,91.64
2022-10-04T23:26:23.083Z,90.95
2022-10-04T23:28:50.076Z,91.82
2022-10-04T23:31:23.664Z,92.07
2022-10-04T23:33:51.368Z,92.24
2022-10-04T23:36:18.704Z,92.46
2022-10-04T23:38:51.969Z,92.32
2022-10-04T23:41:19.836Z,92.44
2022-10-04T23:43:48.826Z,91.62
2022-10-04T23:46:19.323Z,91.54
2022-10-04T23:48:46.788Z,91.34
2022-10-04T23:51:16.821Z,90.74
2022-10-04T23:53:45.522Z,90.99
2022-10-04T23:56:23.573Z,91.16
2022-10-04T23:58:52.949Z,90.22
